sensor_id;sensor_type;location;lat;lon;timestamp;P1;durP1;ratioP1;P2;durP2;ratioP2
6651;SDS011;3362;50.892;10.692;2024-03-02T00:00:34;3.92;;;3.22;;
6651;SDS011;3362;50.892;10.692;2024-03-02T00:03:01;7.55;;;3.20;;
6651;SDS011;3362;50.892;10.692;2024-03-02T00:05:27;6.38;;;2.75;;
6651;SDS011;3362;50.892;10.692;2024-03-02T00:07:54;6.53;;;4.22;;
6651;SDS011;3362;50.892;10.692;2024-03-02T00:10:22;6.20;;;5.25;;
6651;SDS011;3362;50.892;10.692;2024-03-02T00:12:50;9.55;;;4.93;;
6651;SDS011;3362;50.892;10.692;2024-03-02T00:15:24;8.00;;;5.38;;
6651;SDS011;3362;50.892;10.692;2024-03-02T00:17:55;14.45;;;5.32;;
6651;SDS011;3362;50.892;10.692;2024-03-02T00:20:22;10.77;;;6.47;;
6651;SDS011;3362;50.892;10.692;2024-03-02T00:25:15;14.55;;;5.85;;
6651;SDS011;3362;50.892;10.692;2024-03-02T00:27:41;4.90;;;4.28;;
6651;SDS011;3362;50.892;10.692;2024-03-02T00:30:12;7.15;;;5.00;;
6651;SDS011;3362;50.892;10.692;2024-03-02T00:32:53;10.93;;;6.15;;
6651;SDS011;3362;50.892;10.692;2024-03-02T00:35:19;12.05;;;5.32;;
6651;SDS011;3362;50.892;10.692;2024-03-02T00:37:47;9.00;;;6.93;;
6651;SDS011;3362;50.892;10.692;2024-03-02T00:40:13;7.13;;;4.35;;
6651;SDS011;3362;50.892;10.692;2024-03-02T00:42:39;8.27;;;5.78;;
6651;SDS011;3362;50.892;10.692;2024-03-02T00:45:06;7.53;;;4.63;;
6651;SDS011;3362;50.892;10.692;2024-03-02T00:47:34;8.85;;;7.03;;
6651;SDS011;3362;50.892;10.692;2024-03-02T00:50:05;6.82;;;5.22;;
6651;SDS011;3362;50.892;10.692;2024-03-02T00:52:31;9.93;;;5.85;;
6651;SDS011;3362;50.892;10.692;2024-03-02T00:54:58;6.68;;;6.07;;
6651;SDS011;3362;50.892;10.692;2024-03-02T00:57:24;9.48;;;5.68;;
6651;SDS011;3362;50.892;10.692;2024-03-02T00:59:51;9.52;;;5.50;;
6651;SDS011;3362;50.892;10.692;2024-03-02T01:02:17;8.38;;;6.18;;
6651;SDS011;3362;50.892;10.692;2024-03-02T01:04:45;5.90;;;4.63;;
6651;SDS011;3362;50.892;10.692;2024-03-02T01:07:12;9.27;;;5.07;;
6651;SDS011;3362;50.892;10.692;2024-03-02T01:09:38;6.40;;;4.80;;
6651;SDS011;3362;50.892;10.692;2024-03-02T01:12:06;8.52;;;4.47;;
6651;SDS011;3362;50.892;10.692;2024-03-02T01:14:32;12.07;;;6.50;;
6651;SDS011;3362;50.892;10.692;2024-03-02T01:16:59;9.35;;;5.13;;
6651;SDS011;3362;50.892;10.692;2024-03-02T01:19:28;4.32;;;3.92;;
6651;SDS011;3362;50.892;10.692;2024-03-02T01:21:54;5.72;;;5.18;;
6651;SDS011;3362;50.892;10.692;2024-03-02T01:24:22;10.27;;;5.45;;
6651;SDS011;3362;50.892;10.692;2024-03-02T01:26:48;7.22;;;4.68;;
6651;SDS011;3362;50.892;10.692;2024-03-02T01:29:15;5.05;;;4.53;;
6651;SDS011;3362;50.892;10.692;2024-03-02T01:31:41;8.73;;;6.20;;
6651;SDS011;3362;50.892;10.692;2024-03-02T01:34:07;5.57;;;4.85;;
6651;SDS011;3362;50.892;10.692;2024-03-02T01:36:33;6.97;;;4.93;;
6651;SDS011;3362;50.892;10.692;2024-03-02T01:38:59;3.40;;;3.10;;
6651;SDS011;3362;50.892;10.692;2024-03-02T01:41:27;3.50;;;2.78;;
6651;SDS011;3362;50.892;10.692;2024-03-02T01:43:53;7.38;;;4.65;;
6651;SDS011;3362;50.892;10.692;2024-03-02T01:46:19;2.83;;;2.17;;
6651;SDS011;3362;50.892;10.692;2024-03-02T01:48:45;9.77;;;3.90;;
6651;SDS011;3362;50.892;10.692;2024-03-02T01:51:12;4.72;;;3.47;;
6651;SDS011;3362;50.892;10.692;2024-03-02T01:53:39;9.50;;;4.15;;
6651;SDS011;3362;50.892;10.692;2024-03-02T01:56:05;6.63;;;4.50;;
6651;SDS011;3362;50.892;10.692;2024-03-02T02:00:59;3.75;;;2.47;;
6651;SDS011;3362;50.892;10.692;2024-03-02T02:03:25;6.47;;;5.97;;
6651;SDS011;3362;50.892;10.692;2024-03-02T02:05:52;9.73;;;6.03;;
6651;SDS011;3362;50.892;10.692;2024-03-02T02:08:18;5.70;;;3.95;;
6651;SDS011;3362;50.892;10.692;2024-03-02T02:10:44;11.45;;;3.80;;
6651;SDS011;3362;50.892;10.692;2024-03-02T02:13:10;12.15;;;4.22;;
6651;SDS011;3362;50.892;10.692;2024-03-02T02:15:36;8.68;;;4.25;;
6651;SDS011;3362;50.892;10.692;2024-03-02T02:18:04;9.75;;;5.00;;
6651;SDS011;3362;50.892;10.692;2024-03-02T02:20:30;12.68;;;3.85;;
6651;SDS011;3362;50.892;10.692;2024-03-02T02:22:58;5.53;;;5.07;;
6651;SDS011;3362;50.892;10.692;2024-03-02T02:25:25;7.57;;;3.80;;
6651;SDS011;3362;50.892;10.692;2024-03-02T02:27:52;9.02;;;5.05;;
6651;SDS011;3362;50.892;10.692;2024-03-02T02:32:44;3.63;;;3.25;;
6651;SDS011;3362;50.892;10.692;2024-03-02T02:35:10;9.13;;;4.32;;
6651;SDS011;3362;50.892;10.692;2024-03-02T02:37:37;10.73;;;6.57;;
6651;SDS011;3362;50.892;10.692;2024-03-02T02:40:05;8.35;;;4.25;;
6651;SDS011;3362;50.892;10.692;2024-03-02T02:42:32;11.65;;;7.55;;
6651;SDS011;3362;50.892;10.692;2024-03-02T02:44:58;7.85;;;5.65;;
6651;SDS011;3362;50.892;10.692;2024-03-02T02:47:25;10.82;;;5.78;;
6651;SDS011;3362;50.892;10.692;2024-03-02T02:49:51;11.50;;;6.63;;
6651;SDS011;3362;50.892;10.692;2024-03-02T02:52:17;9.13;;;4.55;;
6651;SDS011;3362;50.892;10.692;2024-03-02T02:54:45;12.77;;;6.35;;
6651;SDS011;3362;50.892;10.692;2024-03-02T02:57:12;11.20;;;8.10;;
6651;SDS011;3362;50.892;10.692;2024-03-02T02:59:39;11.73;;;6.38;;
6651;SDS011;3362;50.892;10.692;2024-03-02T03:02:05;14.70;;;7.85;;
6651;SDS011;3362;50.892;10.692;2024-03-02T03:04:31;15.98;;;7.78;;
6651;SDS011;3362;50.892;10.692;2024-03-02T03:06:57;12.35;;;6.70;;
6651;SDS011;3362;50.892;10.692;2024-03-02T03:09:24;10.95;;;5.68;;
6651;SDS011;3362;50.892;10.692;2024-03-02T03:11:50;9.95;;;8.32;;
6651;SDS011;3362;50.892;10.692;2024-03-02T03:14:17;8.80;;;6.47;;
6651;SDS011;3362;50.892;10.692;2024-03-02T03:16:45;10.55;;;6.13;;
6651;SDS011;3362;50.892;10.692;2024-03-02T03:19:13;7.50;;;5.10;;
6651;SDS011;3362;50.892;10.692;2024-03-02T03:21:39;8.75;;;6.30;;
6651;SDS011;3362;50.892;10.692;2024-03-02T03:24:05;13.25;;;6.97;;
6651;SDS011;3362;50.892;10.692;2024-03-02T03:26:32;14.30;;;6.47;;
6651;SDS011;3362;50.892;10.692;2024-03-02T03:29:01;5.15;;;4.75;;
6651;SDS011;3362;50.892;10.692;2024-03-02T03:31:29;12.25;;;6.93;;
6651;SDS011;3362;50.892;10.692;2024-03-02T03:33:55;12.30;;;6.93;;
6651;SDS011;3362;50.892;10.692;2024-03-02T03:36:21;12.80;;;7.22;;
6651;SDS011;3362;50.892;10.692;2024-03-02T03:38:47;13.13;;;6.47;;
6651;SDS011;3362;50.892;10.692;2024-03-02T03:41:14;13.00;;;6.88;;
6651;SDS011;3362;50.892;10.692;2024-03-02T03:43:40;8.65;;;5.95;;
6651;SDS011;3362;50.892;10.692;2024-03-02T03:46:06;12.27;;;6.78;;
6651;SDS011;3362;50.892;10.692;2024-03-02T03:48:34;12.05;;;6.35;;
6651;SDS011;3362;50.892;10.692;2024-03-02T03:51:00;7.22;;;5.55;;
6651;SDS011;3362;50.892;10.692;2024-03-02T03:53:26;12.27;;;7.63;;
6651;SDS011;3362;50.892;10.692;2024-03-02T03:55:52;8.43;;;6.13;;
6651;SDS011;3362;50.892;10.692;2024-03-02T03:58:18;13.50;;;6.85;;
6651;SDS011;3362;50.892;10.692;2024-03-02T04:00:45;10.07;;;7.25;;
6651;SDS011;3362;50.892;10.692;2024-03-02T04:03:12;12.90;;;5.97;;
6651;SDS011;3362;50.892;10.692;2024-03-02T04:05:39;13.80;;;6.30;;
6651;SDS011;3362;50.892;10.692;2024-03-02T04:08:06;10.30;;;5.40;;
6651;SDS011;3362;50.892;10.692;2024-03-02T04:10:32;8.35;;;4.13;;
6651;SDS011;3362;50.892;10.692;2024-03-02T04:12:59;9.57;;;5.03;;
6651;SDS011;3362;50.892;10.692;2024-03-02T04:15:25;13.77;;;6.72;;
6651;SDS011;3362;50.892;10.692;2024-03-02T04:17:51;8.77;;;5.15;;
6651;SDS011;3362;50.892;10.692;2024-03-02T04:20:17;8.02;;;5.05;;
6651;SDS011;3362;50.892;10.692;2024-03-02T04:22:45;10.30;;;6.90;;
6651;SDS011;3362;50.892;10.692;2024-03-02T04:25:11;9.25;;;5.10;;
6651;SDS011;3362;50.892;10.692;2024-03-02T04:27:37;10.82;;;5.03;;
6651;SDS011;3362;50.892;10.692;2024-03-02T04:30:04;8.38;;;5.80;;
6651;SDS011;3362;50.892;10.692;2024-03-02T04:32:31;9.15;;;4.72;;
6651;SDS011;3362;50.892;10.692;2024-03-02T04:34:57;5.75;;;3.72;;
6651;SDS011;3362;50.892;10.692;2024-03-02T04:37:24;8.60;;;6.13;;
6651;SDS011;3362;50.892;10.692;2024-03-02T04:39:51;5.72;;;4.47;;
6651;SDS011;3362;50.892;10.692;2024-03-02T04:42:17;8.90;;;4.70;;
6651;SDS011;3362;50.892;10.692;2024-03-02T04:44:44;5.32;;;4.82;;
6651;SDS011;3362;50.892;10.692;2024-03-02T04:47:10;5.53;;;4.63;;
6651;SDS011;3362;50.892;10.692;2024-03-02T04:49:36;9.30;;;5.18;;
6651;SDS011;3362;50.892;10.692;2024-03-02T04:52:02;5.80;;;4.57;;
6651;SDS011;3362;50.892;10.692;2024-03-02T04:54:29;8.02;;;4.57;;
6651;SDS011;3362;50.892;10.692;2024-03-02T04:56:56;8.95;;;5.35;;
6651;SDS011;3362;50.892;10.692;2024-03-02T04:59:21;6.97;;;5.03;;
6651;SDS011;3362;50.892;10.692;2024-03-02T05:01:48;6.45;;;4.65;;
6651;SDS011;3362;50.892;10.692;2024-03-02T05:04:14;6.65;;;4.15;;
6651;SDS011;3362;50.892;10.692;2024-03-02T05:06:40;4.43;;;3.92;;
6651;SDS011;3362;50.892;10.692;2024-03-02T05:09:07;7.38;;;4.80;;
6651;SDS011;3362;50.892;10.692;2024-03-02T05:11:33;6.15;;;4.00;;
6651;SDS011;3362;50.892;10.692;2024-03-02T05:14:25;6.03;;;3.08;;
6651;SDS011;3362;50.892;10.692;2024-03-02T05:16:50;6.30;;;3.85;;
6651;SDS011;3362;50.892;10.692;2024-03-02T05:19:17;5.68;;;4.03;;
6651;SDS011;3362;50.892;10.692;2024-03-02T05:21:43;4.70;;;3.05;;
6651;SDS011;3362;50.892;10.692;2024-03-02T05:24:09;6.13;;;3.83;;
6651;SDS011;3362;50.892;10.692;2024-03-02T05:26:36;5.65;;;3.72;;
6651;SDS011;3362;50.892;10.692;2024-03-02T05:29:02;4.38;;;2.83;;
6651;SDS011;3362;50.892;10.692;2024-03-02T05:31:29;7.65;;;3.17;;
6651;SDS011;3362;50.892;10.692;2024-03-02T05:33:55;7.70;;;2.70;;
6651;SDS011;3362;50.892;10.692;2024-03-02T05:36:22;4.40;;;2.60;;
6651;SDS011;3362;50.892;10.692;2024-03-02T05:38:48;3.58;;;2.75;;
6651;SDS011;3362;50.892;10.692;2024-03-02T05:41:14;4.22;;;2.70;;
6651;SDS011;3362;50.892;10.692;2024-03-02T05:43:40;3.30;;;2.83;;
6651;SDS011;3362;50.892;10.692;2024-03-02T05:46:06;5.55;;;2.63;;
6651;SDS011;3362;50.892;10.692;2024-03-02T05:48:34;4.57;;;2.85;;
6651;SDS011;3362;50.892;10.692;2024-03-02T05:51:00;4.78;;;3.10;;
6651;SDS011;3362;50.892;10.692;2024-03-02T05:53:26;4.47;;;2.63;;
6651;SDS011;3362;50.892;10.692;2024-03-02T05:55:53;6.07;;;3.45;;
6651;SDS011;3362;50.892;10.692;2024-03-02T05:58:20;4.15;;;2.90;;
6651;SDS011;3362;50.892;10.692;2024-03-02T06:00:57;6.72;;;2.72;;
6651;SDS011;3362;50.892;10.692;2024-03-02T06:03:23;3.20;;;2.88;;
6651;SDS011;3362;50.892;10.692;2024-03-02T06:05:51;4.13;;;2.88;;
6651;SDS011;3362;50.892;10.692;2024-03-02T06:08:17;6.07;;;4.40;;
6651;SDS011;3362;50.892;10.692;2024-03-02T06:10:43;4.13;;;2.67;;
6651;SDS011;3362;50.892;10.692;2024-03-02T06:13:10;4.47;;;2.78;;
6651;SDS011;3362;50.892;10.692;2024-03-02T06:15:37;6.07;;;3.10;;
6651;SDS011;3362;50.892;10.692;2024-03-02T06:18:03;3.05;;;2.83;;
6651;SDS011;3362;50.892;10.692;2024-03-02T06:20:31;3.28;;;2.28;;
6651;SDS011;3362;50.892;10.692;2024-03-02T06:22:59;6.35;;;2.80;;
6651;SDS011;3362;50.892;10.692;2024-03-02T06:25:25;4.22;;;2.83;;
6651;SDS011;3362;50.892;10.692;2024-03-02T06:27:51;5.13;;;3.13;;
6651;SDS011;3362;50.892;10.692;2024-03-02T06:30:17;4.63;;;2.22;;
6651;SDS011;3362;50.892;10.692;2024-03-02T06:32:43;8.20;;;3.45;;
6651;SDS011;3362;50.892;10.692;2024-03-02T06:35:10;4.50;;;4.05;;
6651;SDS011;3362;50.892;10.692;2024-03-02T06:37:37;4.63;;;4.20;;
6651;SDS011;3362;50.892;10.692;2024-03-02T06:42:34;6.68;;;4.43;;
6651;SDS011;3362;50.892;10.692;2024-03-02T06:45:00;4.57;;;3.63;;
6651;SDS011;3362;50.892;10.692;2024-03-02T06:47:26;6.03;;;4.68;;
6651;SDS011;3362;50.892;10.692;2024-03-02T06:49:52;7.38;;;4.90;;
6651;SDS011;3362;50.892;10.692;2024-03-02T06:52:19;9.85;;;3.85;;
6651;SDS011;3362;50.892;10.692;2024-03-02T06:54:45;5.57;;;4.90;;
6651;SDS011;3362;50.892;10.692;2024-03-02T06:57:12;6.20;;;2.72;;
6651;SDS011;3362;50.892;10.692;2024-03-02T06:59:40;9.55;;;4.97;;
6651;SDS011;3362;50.892;10.692;2024-03-02T07:02:06;5.20;;;3.47;;
6651;SDS011;3362;50.892;10.692;2024-03-02T07:04:33;6.80;;;4.07;;
6651;SDS011;3362;50.892;10.692;2024-03-02T07:06:59;7.45;;;4.60;;
6651;SDS011;3362;50.892;10.692;2024-03-02T07:09:25;9.52;;;3.72;;
6651;SDS011;3362;50.892;10.692;2024-03-02T07:11:52;4.18;;;2.95;;
6651;SDS011;3362;50.892;10.692;2024-03-02T07:14:18;8.25;;;3.75;;
6651;SDS011;3362;50.892;10.692;2024-03-02T07:16:45;7.25;;;5.07;;
6651;SDS011;3362;50.892;10.692;2024-03-02T07:19:12;7.65;;;5.57;;
6651;SDS011;3362;50.892;10.692;2024-03-02T07:21:38;8.20;;;5.50;;
6651;SDS011;3362;50.892;10.692;2024-03-02T07:24:04;6.60;;;4.05;;
6651;SDS011;3362;50.892;10.692;2024-03-02T07:26:31;6.07;;;3.92;;
6651;SDS011;3362;50.892;10.692;2024-03-02T07:28:57;7.72;;;4.97;;
6651;SDS011;3362;50.892;10.692;2024-03-02T07:33:52;7.95;;;4.70;;
6651;SDS011;3362;50.892;10.692;2024-03-02T07:36:18;2.47;;;2.28;;
6651;SDS011;3362;50.892;10.692;2024-03-02T07:38:44;6.13;;;3.38;;
6651;SDS011;3362;50.892;10.692;2024-03-02T07:41:10;5.13;;;3.53;;
6651;SDS011;3362;50.892;10.692;2024-03-02T07:43:37;6.95;;;2.70;;
6651;SDS011;3362;50.892;10.692;2024-03-02T07:46:03;9.65;;;4.85;;
6651;SDS011;3362;50.892;10.692;2024-03-02T07:48:29;2.97;;;2.72;;
6651;SDS011;3362;50.892;10.692;2024-03-02T07:50:57;2.85;;;2.40;;
6651;SDS011;3362;50.892;10.692;2024-03-02T07:53:23;6.70;;;4.78;;
6651;SDS011;3362;50.892;10.692;2024-03-02T07:55:49;5.38;;;3.88;;
6651;SDS011;3362;50.892;10.692;2024-03-02T07:58:16;5.60;;;4.15;;
6651;SDS011;3362;50.892;10.692;2024-03-02T08:00:43;4.18;;;2.58;;
6651;SDS011;3362;50.892;10.692;2024-03-02T08:03:09;6.55;;;3.95;;
6651;SDS011;3362;50.892;10.692;2024-03-02T08:05:36;4.97;;;2.67;;
6651;SDS011;3362;50.892;10.692;2024-03-02T08:08:04;8.90;;;4.85;;
6651;SDS011;3362;50.892;10.692;2024-03-02T08:10:30;5.75;;;4.18;;
6651;SDS011;3362;50.892;10.692;2024-03-02T08:12:56;11.63;;;4.55;;
6651;SDS011;3362;50.892;10.692;2024-03-02T08:15:22;3.78;;;3.38;;
6651;SDS011;3362;50.892;10.692;2024-03-02T08:17:49;8.30;;;4.35;;
6651;SDS011;3362;50.892;10.692;2024-03-02T08:20:15;4.63;;;3.30;;
6651;SDS011;3362;50.892;10.692;2024-03-02T08:22:41;7.57;;;4.03;;
6651;SDS011;3362;50.892;10.692;2024-03-02T08:25:09;5.32;;;3.63;;
6651;SDS011;3362;50.892;10.692;2024-03-02T08:27:35;4.78;;;3.70;;
6651;SDS011;3362;50.892;10.692;2024-03-02T08:30:02;11.85;;;4.43;;
6651;SDS011;3362;50.892;10.692;2024-03-02T08:32:31;5.50;;;3.05;;
6651;SDS011;3362;50.892;10.692;2024-03-02T08:34:57;6.10;;;4.28;;
6651;SDS011;3362;50.892;10.692;2024-03-02T08:37:23;3.85;;;2.42;;
6651;SDS011;3362;50.892;10.692;2024-03-02T08:39:50;5.32;;;3.85;;
6651;SDS011;3362;50.892;10.692;2024-03-02T08:42:17;6.20;;;3.95;;
6651;SDS011;3362;50.892;10.692;2024-03-02T08:44:45;6.07;;;4.72;;
6651;SDS011;3362;50.892;10.692;2024-03-02T08:47:11;6.45;;;3.20;;
6651;SDS011;3362;50.892;10.692;2024-03-02T08:49:38;5.57;;;3.72;;
6651;SDS011;3362;50.892;10.692;2024-03-02T08:52:04;4.20;;;2.53;;
6651;SDS011;3362;50.892;10.692;2024-03-02T08:54:31;3.90;;;3.05;;
6651;SDS011;3362;50.892;10.692;2024-03-02T08:56:58;6.03;;;4.07;;
6651;SDS011;3362;50.892;10.692;2024-03-02T08:59:26;3.63;;;3.28;;
6651;SDS011;3362;50.892;10.692;2024-03-02T09:01:52;4.05;;;3.70;;
6651;SDS011;3362;50.892;10.692;2024-03-02T09:04:19;4.25;;;3.20;;
6651;SDS011;3362;50.892;10.692;2024-03-02T09:06:45;4.82;;;3.45;;
6651;SDS011;3362;50.892;10.692;2024-03-02T09:09:11;4.75;;;2.13;;
6651;SDS011;3362;50.892;10.692;2024-03-02T09:11:37;7.57;;;3.55;;
6651;SDS011;3362;50.892;10.692;2024-03-02T09:14:04;4.28;;;3.20;;
6651;SDS011;3362;50.892;10.692;2024-03-02T09:16:31;5.38;;;3.47;;
6651;SDS011;3362;50.892;10.692;2024-03-02T09:18:57;6.30;;;3.58;;
6651;SDS011;3362;50.892;10.692;2024-03-02T09:21:24;5.13;;;3.67;;
6651;SDS011;3362;50.892;10.692;2024-03-02T09:23:50;6.60;;;4.20;;
6651;SDS011;3362;50.892;10.692;2024-03-02T09:26:17;5.53;;;3.35;;
6651;SDS011;3362;50.892;10.692;2024-03-02T09:28:44;6.10;;;3.17;;
6651;SDS011;3362;50.892;10.692;2024-03-02T09:31:11;7.05;;;3.70;;
6651;SDS011;3362;50.892;10.692;2024-03-02T09:33:39;4.95;;;2.72;;
6651;SDS011;3362;50.892;10.692;2024-03-02T09:36:05;7.93;;;3.22;;
6651;SDS011;3362;50.892;10.692;2024-03-02T09:38:31;5.95;;;3.08;;
6651;SDS011;3362;50.892;10.692;2024-03-02T09:40:58;5.13;;;3.08;;
6651;SDS011;3362;50.892;10.692;2024-03-02T09:43:24;4.25;;;3.00;;
6651;SDS011;3362;50.892;10.692;2024-03-02T09:45:50;6.22;;;3.05;;
6651;SDS011;3362;50.892;10.692;2024-03-02T09:48:17;5.28;;;3.15;;
6651;SDS011;3362;50.892;10.692;2024-03-02T09:50:46;3.25;;;2.30;;
6651;SDS011;3362;50.892;10.692;2024-03-02T09:53:13;4.93;;;3.17;;
6651;SDS011;3362;50.892;10.692;2024-03-02T09:55:39;4.80;;;2.78;;
6651;SDS011;3362;50.892;10.692;2024-03-02T09:58:08;4.10;;;2.80;;
6651;SDS011;3362;50.892;10.692;2024-03-02T10:00:35;2.85;;;1.65;;
6651;SDS011;3362;50.892;10.692;2024-03-02T10:03:01;2.47;;;1.50;;
6651;SDS011;3362;50.892;10.692;2024-03-02T10:05:27;3.92;;;2.78;;
6651;SDS011;3362;50.892;10.692;2024-03-02T10:10:22;3.60;;;2.25;;
6651;SDS011;3362;50.892;10.692;2024-03-02T10:12:48;3.00;;;1.80;;
6651;SDS011;3362;50.892;10.692;2024-03-02T10:15:15;5.15;;;2.60;;
6651;SDS011;3362;50.892;10.692;2024-03-02T10:17:49;2.55;;;2.05;;
6651;SDS011;3362;50.892;10.692;2024-03-02T10:20:22;3.70;;;2.25;;
6651;SDS011;3362;50.892;10.692;2024-03-02T10:22:49;4.93;;;1.85;;
6651;SDS011;3362;50.892;10.692;2024-03-02T10:25:29;3.03;;;2.40;;
6651;SDS011;3362;50.892;10.692;2024-03-02T10:27:56;2.17;;;1.58;;
6651;SDS011;3362;50.892;10.692;2024-03-02T10:30:23;1.63;;;1.52;;
6651;SDS011;3362;50.892;10.692;2024-03-02T10:32:49;2.63;;;2.03;;
6651;SDS011;3362;50.892;10.692;2024-03-02T10:35:15;2.05;;;1.75;;
6651;SDS011;3362;50.892;10.692;2024-03-02T10:37:42;4.10;;;1.80;;
6651;SDS011;3362;50.892;10.692;2024-03-02T10:40:09;4.20;;;1.85;;
6651;SDS011;3362;50.892;10.692;2024-03-02T10:42:37;3.53;;;1.55;;
6651;SDS011;3362;50.892;10.692;2024-03-02T10:45:05;2.72;;;1.38;;
6651;SDS011;3362;50.892;10.692;2024-03-02T10:47:31;3.55;;;1.55;;
6651;SDS011;3362;50.892;10.692;2024-03-02T10:49:59;1.10;;;1.00;;
6651;SDS011;3362;50.892;10.692;2024-03-02T10:52:27;1.17;;;1.08;;
6651;SDS011;3362;50.892;10.692;2024-03-02T10:54:53;2.65;;;2.03;;
6651;SDS011;3362;50.892;10.692;2024-03-02T10:57:20;1.45;;;1.35;;
6651;SDS011;3362;50.892;10.692;2024-03-02T10:59:51;1.42;;;1.33;;
6651;SDS011;3362;50.892;10.692;2024-03-02T11:02:18;3.60;;;1.92;;
6651;SDS011;3362;50.892;10.692;2024-03-02T11:04:47;3.25;;;2.40;;
6651;SDS011;3362;50.892;10.692;2024-03-02T11:07:14;2.90;;;2.33;;
6651;SDS011;3362;50.892;10.692;2024-03-02T11:09:42;3.67;;;2.40;;
6651;SDS011;3362;50.892;10.692;2024-03-02T11:12:12;3.20;;;2.13;;
6651;SDS011;3362;50.892;10.692;2024-03-02T11:14:40;2.08;;;1.50;;
6651;SDS011;3362;50.892;10.692;2024-03-02T11:17:09;3.17;;;2.20;;
6651;SDS011;3362;50.892;10.692;2024-03-02T11:19:36;2.92;;;2.05;;
6651;SDS011;3362;50.892;10.692;2024-03-02T11:22:03;1.80;;;1.33;;
6651;SDS011;3362;50.892;10.692;2024-03-02T11:24:30;1.70;;;1.60;;
6651;SDS011;3362;50.892;10.692;2024-03-02T11:26:58;2.90;;;1.50;;
6651;SDS011;3362;50.892;10.692;2024-03-02T11:31:57;2.22;;;1.20;;
6651;SDS011;3362;50.892;10.692;2024-03-02T11:34:29;0.93;;;0.80;;
6651;SDS011;3362;50.892;10.692;2024-03-02T11:36:55;3.08;;;0.90;;
6651;SDS011;3362;50.892;10.692;2024-03-02T11:39:22;1.83;;;0.63;;
6651;SDS011;3362;50.892;10.692;2024-03-02T11:41:48;1.02;;;0.93;;
6651;SDS011;3362;50.892;10.692;2024-03-02T11:44:14;0.57;;;0.57;;
6651;SDS011;3362;50.892;10.692;2024-03-02T11:49:07;4.22;;;0.90;;
6651;SDS011;3362;50.892;10.692;2024-03-02T11:51:35;4.40;;;1.70;;
6651;SDS011;3362;50.892;10.692;2024-03-02T11:54:04;2.30;;;1.40;;
6651;SDS011;3362;50.892;10.692;2024-03-02T11:56:31;2.67;;;1.83;;
6651;SDS011;3362;50.892;10.692;2024-03-02T12:01:24;2.15;;;1.23;;
6651;SDS011;3362;50.892;10.692;2024-03-02T12:03:50;1.45;;;1.17;;
6651;SDS011;3362;50.892;10.692;2024-03-02T12:06:17;2.50;;;1.55;;
6651;SDS011;3362;50.892;10.692;2024-03-02T12:08:47;1.45;;;1.35;;
6651;SDS011;3362;50.892;10.692;2024-03-02T12:13:51;1.77;;;1.40;;
6651;SDS011;3362;50.892;10.692;2024-03-02T12:16:22;3.60;;;1.58;;
6651;SDS011;3362;50.892;10.692;2024-03-02T12:18:48;2.97;;;1.70;;
6651;SDS011;3362;50.892;10.692;2024-03-02T12:23:41;2.28;;;1.40;;
6651;SDS011;3362;50.892;10.692;2024-03-02T12:26:08;2.28;;;1.33;;
6651;SDS011;3362;50.892;10.692;2024-03-02T12:28:34;3.22;;;1.58;;
6651;SDS011;3362;50.892;10.692;2024-03-02T12:31:01;1.70;;;1.38;;
6651;SDS011;3362;50.892;10.692;2024-03-02T12:33:27;2.38;;;1.40;;
6651;SDS011;3362;50.892;10.692;2024-03-02T12:35:54;2.50;;;1.40;;
6651;SDS011;3362;50.892;10.692;2024-03-02T12:38:20;1.98;;;1.50;;
6651;SDS011;3362;50.892;10.692;2024-03-02T12:40:50;1.25;;;0.88;;
6651;SDS011;3362;50.892;10.692;2024-03-02T12:43:18;1.45;;;1.00;;
6651;SDS011;3362;50.892;10.692;2024-03-02T12:45:45;1.58;;;1.23;;
6651;SDS011;3362;50.892;10.692;2024-03-02T12:48:11;2.03;;;1.40;;
6651;SDS011;3362;50.892;10.692;2024-03-02T12:50:39;2.88;;;1.58;;
6651;SDS011;3362;50.892;10.692;2024-03-02T12:53:05;1.55;;;1.40;;
6651;SDS011;3362;50.892;10.692;2024-03-02T12:55:33;1.35;;;1.25;;
6651;SDS011;3362;50.892;10.692;2024-03-02T12:57:59;1.13;;;0.98;;
6651;SDS011;3362;50.892;10.692;2024-03-02T13:00:29;2.30;;;1.38;;
6651;SDS011;3362;50.892;10.692;2024-03-02T13:02:58;2.50;;;1.30;;
6651;SDS011;3362;50.892;10.692;2024-03-02T13:05:29;2.83;;;1.23;;
6651;SDS011;3362;50.892;10.692;2024-03-02T13:07:55;1.42;;;1.30;;
6651;SDS011;3362;50.892;10.692;2024-03-02T13:10:21;2.25;;;1.05;;
6651;SDS011;3362;50.892;10.692;2024-03-02T13:12:48;1.67;;;1.10;;
6651;SDS011;3362;50.892;10.692;2024-03-02T13:15:14;1.35;;;1.02;;
6651;SDS011;3362;50.892;10.692;2024-03-02T13:17:42;1.90;;;1.42;;
6651;SDS011;3362;50.892;10.692;2024-03-02T13:20:10;1.85;;;1.45;;
6651;SDS011;3362;50.892;10.692;2024-03-02T13:22:39;2.05;;;1.52;;
6651;SDS011;3362;50.892;10.692;2024-03-02T13:25:05;2.83;;;1.92;;
6651;SDS011;3362;50.892;10.692;2024-03-02T13:27:33;2.63;;;1.42;;
6651;SDS011;3362;50.892;10.692;2024-03-02T13:29:59;2.35;;;1.75;;
6651;SDS011;3362;50.892;10.692;2024-03-02T13:32:26;2.45;;;1.67;;
6651;SDS011;3362;50.892;10.692;2024-03-02T13:34:53;1.80;;;1.63;;
6651;SDS011;3362;50.892;10.692;2024-03-02T13:37:20;2.70;;;1.77;;
6651;SDS011;3362;50.892;10.692;2024-03-02T13:39:46;1.50;;;1.27;;
6651;SDS011;3362;50.892;10.692;2024-03-02T13:42:12;2.08;;;1.40;;
6651;SDS011;3362;50.892;10.692;2024-03-02T13:44:40;1.50;;;1.40;;
6651;SDS011;3362;50.892;10.692;2024-03-02T13:47:06;1.17;;;1.00;;
6651;SDS011;3362;50.892;10.692;2024-03-02T13:49:33;1.75;;;1.63;;
6651;SDS011;3362;50.892;10.692;2024-03-02T13:52:02;2.80;;;1.40;;
6651;SDS011;3362;50.892;10.692;2024-03-02T13:54:36;3.67;;;1.40;;
6651;SDS011;3362;50.892;10.692;2024-03-02T13:57:02;1.60;;;1.33;;
6651;SDS011;3362;50.892;10.692;2024-03-02T13:59:29;1.70;;;1.10;;
6651;SDS011;3362;50.892;10.692;2024-03-02T14:01:55;4.15;;;0.73;;
6651;SDS011;3362;50.892;10.692;2024-03-02T14:04:21;1.67;;;0.95;;
6651;SDS011;3362;50.892;10.692;2024-03-02T14:06:47;1.40;;;0.80;;
6651;SDS011;3362;50.892;10.692;2024-03-02T14:09:15;1.40;;;0.80;;
6651;SDS011;3362;50.892;10.692;2024-03-02T14:11:41;2.35;;;0.82;;
6651;SDS011;3362;50.892;10.692;2024-03-02T14:14:07;0.70;;;0.70;;
6651;SDS011;3362;50.892;10.692;2024-03-02T14:16:34;1.17;;;0.85;;
6651;SDS011;3362;50.892;10.692;2024-03-02T14:19:00;0.70;;;0.60;;
6651;SDS011;3362;50.892;10.692;2024-03-02T14:21:26;1.02;;;0.93;;
6651;SDS011;3362;50.892;10.692;2024-03-02T14:23:53;1.17;;;1.08;;
6651;SDS011;3362;50.892;10.692;2024-03-02T14:26:21;1.00;;;0.90;;
6651;SDS011;3362;50.892;10.692;2024-03-02T14:28:47;0.80;;;0.75;;
6651;SDS011;3362;50.892;10.692;2024-03-02T14:31:13;2.30;;;0.82;;
6651;SDS011;3362;50.892;10.692;2024-03-02T14:33:39;1.00;;;0.70;;
6651;SDS011;3362;50.892;10.692;2024-03-02T14:36:06;2.00;;;0.70;;
6651;SDS011;3362;50.892;10.692;2024-03-02T14:38:32;0.95;;;0.90;;
6651;SDS011;3362;50.892;10.692;2024-03-02T14:41:00;0.93;;;0.70;;
6651;SDS011;3362;50.892;10.692;2024-03-02T14:43:27;1.88;;;0.70;;
6651;SDS011;3362;50.892;10.692;2024-03-02T14:45:53;1.58;;;1.27;;
6651;SDS011;3362;50.892;10.692;2024-03-02T14:48:20;1.13;;;1.00;;
6651;SDS011;3362;50.892;10.692;2024-03-02T14:50:46;1.20;;;1.00;;
6651;SDS011;3362;50.892;10.692;2024-03-02T14:53:12;0.80;;;0.77;;
6651;SDS011;3362;50.892;10.692;2024-03-02T14:55:38;1.20;;;0.98;;
6651;SDS011;3362;50.892;10.692;2024-03-02T14:58:05;1.77;;;0.90;;
6651;SDS011;3362;50.892;10.692;2024-03-02T15:00:32;1.02;;;0.80;;
6651;SDS011;3362;50.892;10.692;2024-03-02T15:02:58;3.63;;;1.00;;
6651;SDS011;3362;50.892;10.692;2024-03-02T15:05:24;2.65;;;0.85;;
6651;SDS011;3362;50.892;10.692;2024-03-02T15:07:51;1.75;;;1.15;;
6651;SDS011;3362;50.892;10.692;2024-03-02T15:10:18;2.78;;;1.05;;
6651;SDS011;3362;50.892;10.692;2024-03-02T15:12:44;0.70;;;0.70;;
6651;SDS011;3362;50.892;10.692;2024-03-02T15:15:10;2.58;;;0.90;;
6651;SDS011;3362;50.892;10.692;2024-03-02T15:17:38;2.15;;;1.27;;
6651;SDS011;3362;50.892;10.692;2024-03-02T15:20:05;2.63;;;1.73;;
6651;SDS011;3362;50.892;10.692;2024-03-02T15:22:32;4.60;;;1.05;;
6651;SDS011;3362;50.892;10.692;2024-03-02T15:24:58;1.50;;;0.90;;